Time;durP1;ratioP1;P1;durP2;ratioP2;P2;SDS_P1;SDS_P2;PMS_P1;PMS_P2;Temp;Humidity;BMP_temperature;BMP_pressure;BME280_temperature;BME280_humidity;BME280_pressure;Samples;Min_cycle;Max_cycle;Signal;HPM_P1;HPM_P2
2023/04/15 00:01:04;;;;;;;;;;;;;;;5.95;100.00;100350.72;4938164;28;20344;-87
2023/04/15 00:03:30;;;;;;;;;;;;;;;5.90;100.00;100347.63;4914234;29;20130;-87
2023/04/15 00:05:56;;;;;;;;;;;;;;;5.84;100.00;100348.88;4930742;29;19925;-87
2023/04/15 00:08:22;;;;;;;;;;;;;;;5.81;100.00;100354.38;4911085;29;19919;-87
2023/04/15 00:10:48;;;;;;;;;;;;;;;5.80;100.00;100355.34;4935738;29;20391;-87
2023/04/15 00:13:14;;;;;;;;;;;;;;;5.78;100.00;100357.22;4933698;28;19925;-87
2023/04/15 00:15:40;;;;;;;;;;;;;;;5.73;100.00;100359.38;4909016;29;19919;-87
2023/04/15 00:18:06;;;;;;;;;;;;;;;5.69;100.00;100355.28;4915308;29;20292;-87
2023/04/15 00:20:33;;;;;;;;;;;;;;;5.64;100.00;100368.75;4919786;29;19996;-87
2023/04/15 00:22:59;;;;;;;;;;;;;;;5.60;100.00;100369.94;4904515;29;19922;-87
2023/04/15 00:25:25;;;;;;;;;;;;;;;5.58;100.00;100356.94;4924820;29;20371;-87
2023/04/15 00:27:50;;;;;;;;;;;;;;;5.61;100.00;100357.66;4914000;29;19923;-87
2023/04/15 00:30:17;;;;;;;;;;;;;;;5.65;100.00;100365.19;4919681;29;20343;-87
2023/04/15 00:32:43;;;;;;;;;;;;;;;5.67;100.00;100362.47;4929673;29;19926;-87
2023/04/15 00:35:09;;;;;;;;;;;;;;;5.67;100.00;100358.03;4886670;29;19919;-87
2023/04/15 00:37:35;;;;;;;;;;;;;;;5.64;100.00;100357.44;4911462;29;19978;-87
2023/04/15 00:40:04;;;;;;;;;;;;;;;5.61;100.00;100362.88;4905207;29;19923;-87
2023/04/15 00:42:30;;;;;;;;;;;;;;;5.59;100.00;100363.84;4925026;29;20622;-87
2023/04/15 00:44:56;;;;;;;;;;;;;;;5.61;100.00;100363.72;4909728;29;20015;-87
2023/04/15 00:47:21;;;;;;;;;;;;;;;5.65;100.00;100364.34;4915721;29;20296;-87
2023/04/15 00:49:47;;;;;;;;;;;;;;;5.59;100.00;100363.00;4934684;29;19927;-87
2023/04/15 00:52:13;;;;;;;;;;;;;;;5.57;100.00;100362.31;4917120;29;19927;-87
2023/04/15 00:54:39;;;;;;;;;;;;;;;5.56;100.00;100368.47;4924017;29;20385;-87
2023/04/15 00:57:05;;;;;;;;;;;;;;;5.53;100.00;100371.31;4928673;29;19968;-86
2023/04/15 00:59:32;;;;;;;;;;;;;;;5.54;100.00;100370.41;4905202;29;19919;-86
2023/04/15 01:01:58;;;;;;;;;;;;;;;5.52;100.00;100373.13;4906306;29;20347;-87
2023/04/15 01:04:24;;;;;;;;;;;;;;;5.52;100.00;100377.53;4935210;29;20002;-87
2023/04/15 01:06:50;;;;;;;;;;;;;;;5.52;100.00;100383.63;4921101;29;20446;-87
2023/04/15 01:09:16;;;;;;;;;;;;;;;5.48;100.00;100390.00;4907562;29;20392;-87
2023/04/15 01:11:42;;;;;;;;;;;;;;;5.43;100.00;100385.13;4886275;29;20325;-87
2023/04/15 01:14:08;;;;;;;;;;;;;;;5.42;100.00;100385.22;4906818;29;20017;-88
2023/04/15 01:16:33;;;;;;;;;;;;;;;5.43;100.00;100389.53;4888458;29;19924;-87
2023/04/15 01:18:59;;;;;;;;;;;;;;;5.42;100.00;100388.69;4929923;29;20391;-87
2023/04/15 01:21:25;;;;;;;;;;;;;;;5.39;100.00;100390.69;4913898;29;19919;-87
2023/04/15 01:23:52;;;;;;;;;;;;;;;5.41;100.00;100394.03;4913994;29;19919;-87
2023/04/15 01:26:18;;;;;;;;;;;;;;;5.37;100.00;100395.22;4894179;29;19926;-86
2023/04/15 01:28:44;;;;;;;;;;;;;;;5.34;100.00;100399.75;4913507;29;19935;-87
2023/04/15 01:31:12;;;;;;;;;;;;;;;5.34;100.00;100399.75;4883786;29;20636;-87
2023/04/15 01:33:38;;;;;;;;;;;;;;;5.35;100.00;100397.97;4917876;29;19959;-87
2023/04/15 01:36:24;;;;;;;;;;;;;;;5.34;100.00;100396.28;4916962;29;19983;-87
2023/04/15 01:38:52;;;;;;;;;;;;;;;5.29;100.00;100399.22;4897869;29;20010;-86
2023/04/15 01:41:24;;;;;;;;;;;;;;;5.28;100.00;100394.09;4935885;29;20371;-87
2023/04/15 01:43:52;;;;;;;;;;;;;;;5.28;100.00;100397.56;4921015;29;20283;-87
2023/04/15 01:46:18;;;;;;;;;;;;;;;5.29;100.00;100399.22;4898931;29;19923;-86
2023/04/15 01:48:46;;;;;;;;;;;;;;;5.28;100.00;100410.66;4915520;29;19925;-87
2023/04/15 01:51:12;;;;;;;;;;;;;;;5.28;100.00;100409.81;4906916;29;19919;-86
2023/04/15 01:53:39;;;;;;;;;;;;;;;5.28;100.00;100413.28;4918968;29;19920;-86
2023/04/15 01:56:06;;;;;;;;;;;;;;;5.27;100.00;100413.41;4914137;29;19923;-86
2023/04/15 01:58:33;;;;;;;;;;;;;;;5.28;100.00;100413.28;4936012;28;19923;-86
2023/04/15 02:01:01;;;;;;;;;;;;;;;5.31;100.00;100414.84;4920809;29;19923;-87
2023/04/15 02:03:31;;;;;;;;;;;;;;;5.31;100.00;100409.59;4922944;29;19925;-87
2023/04/15 02:05:58;;;;;;;;;;;;;;;5.30;100.00;100408.75;4903003;29;19953;-87
2023/04/15 02:08:25;;;;;;;;;;;;;;;5.33;100.00;100412.94;4930651;29;19925;-86
2023/04/15 02:10:52;;;;;;;;;;;;;;;5.36;100.00;100412.72;4933734;29;19923;-87
2023/04/15 02:13:19;;;;;;;;;;;;;;;5.41;100.00;100422.88;4927681;29;19918;-86
2023/04/15 02:15:47;;;;;;;;;;;;;;;5.46;100.00;100421.59;4922407;29;20302;-86
2023/04/15 02:18:15;;;;;;;;;;;;;;;5.49;100.00;100420.53;4930889;29;19918;-87
2023/04/15 02:20:44;;;;;;;;;;;;;;;5.52;100.00;100427.34;4908111;29;20375;-87
2023/04/15 02:23:11;;;;;;;;;;;;;;;5.52;100.00;100424.72;4896021;29;19925;-87
2023/04/15 02:25:38;;;;;;;;;;;;;;;5.56;100.00;100436.66;4920813;29;19918;-87
2023/04/15 02:28:05;;;;;;;;;;;;;;;5.51;100.00;100436.97;4934053;29;19919;-86
2023/04/15 02:30:32;;;;;;;;;;;;;;;5.27;100.00;100429.13;4928808;29;19923;-87
2023/04/15 02:33:02;;;;;;;;;;;;;;;5.10;100.00;100433.78;4927162;29;19922;-87
2023/04/15 02:35:29;;;;;;;;;;;;;;;5.01;100.00;100430.03;4898688;29;19929;-86
2023/04/15 02:37:56;;;;;;;;;;;;;;;4.99;100.00;100439.78;4910856;29;19919;-87
2023/04/15 02:40:23;;;;;;;;;;;;;;;5.03;100.00;100449.06;4904617;29;19929;-86
2023/04/15 02:42:50;;;;;;;;;;;;;;;5.05;100.00;100452.44;4926062;29;19918;-86
2023/04/15 02:45:22;;;;;;;;;;;;;;;5.11;100.00;100455.56;4910094;29;19923;-85
2023/04/15 02:47:49;;;;;;;;;;;;;;;5.14;100.00;100450.97;4921851;29;19925;-86
2023/04/15 02:50:16;;;;;;;;;;;;;;;5.16;100.00;100448.25;4912539;29;19923;-86
2023/04/15 02:52:43;;;;;;;;;;;;;;;5.16;100.00;100451.66;4921364;29;19930;-86
2023/04/15 02:55:11;;;;;;;;;;;;;;;5.19;100.00;100458.50;4912956;29;19918;-86
2023/04/15 02:57:39;;;;;;;;;;;;;;;5.19;100.00;100456.69;4911279;29;19927;-87
2023/04/15 03:00:10;;;;;;;;;;;;;;;5.20;100.00;100460.16;4917787;29;20149;-87
2023/04/15 03:02:40;;;;;;;;;;;;;;;5.22;100.00;100455.66;4929356;29;19929;-86
2023/04/15 03:05:11;;;;;;;;;;;;;;;5.25;100.00;100465.94;4934356;29;19919;-86
2023/04/15 03:07:39;;;;;;;;;;;;;;;5.28;100.00;100463.09;4940463;28;19927;-86
2023/04/15 03:10:10;;;;;;;;;;;;;;;5.32;100.00;100467.16;4914049;29;19929;-86
2023/04/15 03:12:37;;;;;;;;;;;;;;;5.37;100.00;100472.06;4913220;29;19929;-86
2023/04/15 03:15:05;;;;;;;;;;;;;;;5.36;100.00;100473.03;4925486;29;19925;-86
2023/04/15 03:17:37;;;;;;;;;;;;;;;5.27;100.00;100478.91;4928200;29;19919;-86
2023/04/15 03:20:04;;;;;;;;;;;;;;;5.13;100.00;100480.72;4907559;29;19925;-86
2023/04/15 03:22:32;;;;;;;;;;;;;;;5.02;100.00;100483.25;4908500;29;20283;-86
2023/04/15 03:24:59;;;;;;;;;;;;;;;4.95;100.00;100493.34;4927157;29;19918;-87
2023/04/15 03:27:26;;;;;;;;;;;;;;;4.87;100.00;100499.09;4913629;29;19924;-87
2023/04/15 03:29:55;;;;;;;;;;;;;;;4.77;100.00;100493.66;4919890;29;20015;-87
2023/04/15 03:32:24;;;;;;;;;;;;;;;4.72;100.00;100490.50;4920761;29;20291;-87
2023/04/15 03:34:51;;;;;;;;;;;;;;;4.68;100.00;100504.75;4920978;29;20421;-86
2023/04/15 03:37:18;;;;;;;;;;;;;;;4.66;100.00;100509.25;4920812;29;19922;-86
2023/04/15 03:39:45;;;;;;;;;;;;;;;4.64;100.00;100514.59;4902812;29;20299;-86
2023/04/15 03:42:12;;;;;;;;;;;;;;;4.66;100.00;100519.72;4917551;29;19922;-86
2023/04/15 03:44:39;;;;;;;;;;;;;;;4.68;100.00;100526.53;4910626;29;19926;-86
2023/04/15 03:47:06;;;;;;;;;;;;;;;4.69;100.00;100517.75;4936459;28;20969;-87
2023/04/15 03:49:33;;;;;;;;;;;;;;;4.70;100.00;100515.94;4932846;29;19922;-86
2023/04/15 03:52:00;;;;;;;;;;;;;;;4.67;100.00;100511.78;4909545;29;19945;-86
2023/04/15 03:54:27;;;;;;;;;;;;;;;4.68;100.00;100507.38;4931934;29;19919;-86
2023/04/15 03:56:54;;;;;;;;;;;;;;;4.67;100.00;100511.78;4927216;29;19971;-86
2023/04/15 03:59:21;;;;;;;;;;;;;;;4.52;100.00;100524.13;4923522;29;19939;-86
2023/04/15 04:01:48;;;;;;;;;;;;;;;4.33;100.00;100524.50;4932182;28;19938;-86
2023/04/15 04:04:15;;;;;;;;;;;;;;;4.17;100.00;100522.06;4915148;29;20364;-86
2023/04/15 04:06:42;;;;;;;;;;;;;;;4.08;100.00;100511.25;4892898;29;19919;-86
2023/04/15 04:09:08;;;;;;;;;;;;;;;4.12;100.00;100519.75;4924192;29;19923;-85
2023/04/15 04:11:36;;;;;;;;;;;;;;;4.16;100.00;100520.38;4921359;29;19937;-86
2023/04/15 04:14:03;;;;;;;;;;;;;;;4.19;100.00;100528.00;4920746;29;19925;-86
2023/04/15 04:16:30;;;;;;;;;;;;;;;4.18;100.00;100519.34;4893071;29;19919;-86
2023/04/15 04:18:57;;;;;;;;;;;;;;;4.20;100.00;100521.88;4893359;29;20330;-86
2023/04/15 04:21:23;;;;;;;;;;;;;;;4.25;100.00;100527.63;4907850;29;20381;-86
2023/04/15 04:23:50;;;;;;;;;;;;;;;4.27;100.00;100530.16;4906629;29;19926;-86
2023/04/15 04:26:17;;;;;;;;;;;;;;;4.29;100.00;100523.88;4911174;29;19925;-86
2023/04/15 04:28:44;;;;;;;;;;;;;;;4.27;100.00;100530.16;4894063;29;20281;-85
2023/04/15 04:31:11;;;;;;;;;;;;;;;4.32;100.00;100528.91;4903830;29;19938;-86
2023/04/15 04:33:37;;;;;;;;;;;;;;;4.24;100.00;100535.59;4925617;29;19919;-86
2023/04/15 04:36:04;;;;;;;;;;;;;;;4.07;100.00;100540.97;4891520;29;19919;-86
2023/04/15 04:38:31;;;;;;;;;;;;;;;4.01;100.00;100540.53;4883590;29;19920;-86
2023/04/15 04:40:58;;;;;;;;;;;;;;;4.05;100.00;100542.00;4907400;29;19923;-86
2023/04/15 04:43:25;;;;;;;;;;;;;;;4.05;100.00;100536.75;4908840;29;19920;-86
2023/04/15 04:45:52;;;;;;;;;;;;;;;4.01;100.00;100549.22;4904471;29;19930;-86
2023/04/15 04:48:19;;;;;;;;;;;;;;;3.88;100.00;100556.16;4905020;29;19927;-86
2023/04/15 04:50:46;;;;;;;;;;;;;;;3.57;100.00;100553.69;4912810;29;19929;-86
2023/04/15 04:53:13;;;;;;;;;;;;;;;3.34;100.00;100554.19;4898844;29;19955;-86
2023/04/15 04:55:41;;;;;;;;;;;;;;;3.32;100.00;100558.69;4917306;29;20380;-86
2023/04/15 04:58:08;;;;;;;;;;;;;;;3.35;100.00;100555.91;4906429;29;19919;-86
2023/04/15 05:00:36;;;;;;;;;;;;;;;3.34;100.00;100558.59;4919772;29;19923;-86
2023/04/15 05:03:03;;;;;;;;;;;;;;;3.30;100.00;100557.09;4939248;28;19952;-86
2023/04/15 05:05:30;;;;;;;;;;;;;;;3.28;100.00;100572.03;4938061;29;19919;-86
2023/04/15 05:07:57;;;;;;;;;;;;;;;3.27;100.00;100575.56;4909958;29;20383;-86
2023/04/15 05:10:24;;;;;;;;;;;;;;;3.29;100.00;100569.34;4931916;29;19929;-86
2023/04/15 05:12:51;;;;;;;;;;;;;;;3.35;100.00;100571.56;4926316;29;19926;-86
2023/04/15 05:15:18;;;;;;;;;;;;;;;3.38;100.00;100567.09;4913131;29;19930;-86
2023/04/15 05:17:45;;;;;;;;;;;;;;;3.40;100.00;100573.91;4924498;29;19919;-86
2023/04/15 05:20:12;;;;;;;;;;;;;;;3.43;100.00;100581.56;4924433;29;19919;-86
2023/04/15 05:22:39;;;;;;;;;;;;;;;3.39;100.00;100571.38;4949883;28;19933;-85
2023/04/15 05:25:06;;;;;;;;;;;;;;;3.33;100.00;100590.88;4926532;29;19918;-85
2023/04/15 05:27:33;;;;;;;;;;;;;;;3.30;100.00;100596.28;4949100;28;20382;-85
2023/04/15 05:30:00;;;;;;;;;;;;;;;3.23;100.00;100601.88;4927844;29;19919;-86
2023/04/15 05:32:27;;;;;;;;;;;;;;;3.17;100.00;100599.63;4918953;29;19923;-86
2023/04/15 05:34:54;;;;;;;;;;;;;;;3.13;100.00;100608.59;4940651;29;20383;-85
2023/04/15 05:37:21;;;;;;;;;;;;;;;3.10;100.00;100620.09;4902670;28;19923;-85
2023/04/15 05:39:48;;;;;;;;;;;;;;;3.11;100.00;100620.91;4916553;29;19934;-85
2023/04/15 05:42:15;;;;;;;;;;;;;;;3.17;100.00;100625.75;4941630;28;19926;-85
2023/04/15 05:44:42;;;;;;;;;;;;;;;3.22;100.00;100633.31;4917261;29;19919;-85
2023/04/15 05:47:09;;;;;;;;;;;;;;;3.26;100.00;100633.97;4948000;28;20427;-85
2023/04/15 05:49:36;;;;;;;;;;;;;;;3.34;100.00;100636.97;4949985;28;19925;-85
2023/04/15 05:52:03;;;;;;;;;;;;;;;3.46;100.00;100635.38;4938821;29;19930;-86
2023/04/15 05:54:30;;;;;;;;;;;;;;;3.52;100.00;100645.47;4934103;29;20004;-85
2023/04/15 05:56:57;;;;;;;;;;;;;;;3.62;100.00;100644.91;4923604;29;19919;-85
2023/04/15 05:59:24;;;;;;;;;;;;;;;3.77;100.00;100650.97;4912528;29;19927;-85
2023/04/15 06:01:51;;;;;;;;;;;;;;;3.91;100.00;100650.13;4925997;29;20406;-85
2023/04/15 06:04:18;;;;;;;;;;;;;;;4.02;100.00;100658.13;4915270;29;19918;-85
2023/04/15 06:06:46;;;;;;;;;;;;;;;4.12;100.00;100665.41;4931321;29;20315;-86
2023/04/15 06:09:12;;;;;;;;;;;;;;;4.26;100.00;100660.13;4930543;29;19925;-85
2023/04/15 06:11:40;;;;;;;;;;;;;;;4.42;100.00;100664.38;4912878;29;19927;-85
2023/04/15 06:14:07;;;;;;;;;;;;;;;4.33;100.00;100658.78;4932618;29;19941;-86
2023/04/15 06:16:35;;;;;;;;;;;;;;;4.20;100.00;100666.59;4937049;29;19949;-85
2023/04/15 06:19:02;;;;;;;;;;;;;;;4.29;100.00;100662.56;4901120;29;19919;-86
2023/04/15 06:21:30;;;;;;;;;;;;;;;4.52;100.00;100667.25;4920683;29;19922;-86
2023/04/15 06:23:57;;;;;;;;;;;;;;;4.72;100.00;100673.81;4926190;29;19933;-86
2023/04/15 06:26:25;;;;;;;;;;;;;;;4.88;100.00;100675.41;4928184;29;20581;-85
2023/04/15 06:28:52;;;;;;;;;;;;;;;4.99;100.00;100679.94;4923266;29;20298;-86
2023/04/15 06:31:19;;;;;;;;;;;;;;;5.13;100.00;100686.91;4906256;29;19919;-86
2023/04/15 06:33:46;;;;;;;;;;;;;;;5.21;100.00;100692.44;4918046;29;19919;-86
2023/04/15 06:36:13;;;;;;;;;;;;;;;5.38;100.00;100680.84;4922960;29;20145;-85
2023/04/15 06:38:40;;;;;;;;;;;;;;;5.65;100.00;100681.66;4915124;29;19923;-86
2023/04/15 06:41:07;;;;;;;;;;;;;;;5.85;100.00;100680.25;4929301;29;19923;-82
2023/04/15 06:43:34;;;;;;;;;;;;;;;6.07;100.00;100686.66;4916894;29;19919;-82
2023/04/15 06:46:01;;;;;;;;;;;;;;;6.29;100.00;100691.19;4912550;29;19923;-86
2023/04/15 06:48:27;;;;;;;;;;;;;;;6.53;100.00;100700.06;4922970;29;19919;-85
2023/04/15 06:50:55;;;;;;;;;;;;;;;6.72;100.00;100712.66;4921816;29;20402;-86
2023/04/15 06:53:22;;;;;;;;;;;;;;;6.86;100.00;100716.09;4914908;29;20012;-85
2023/04/15 06:55:49;;;;;;;;;;;;;;;7.01;100.00;100714.94;4937039;28;20489;-86
2023/04/15 06:58:16;;;;;;;;;;;;;;;7.25;100.00;100713.22;4940730;28;20272;-86
2023/04/15 07:00:43;;;;;;;;;;;;;;;7.50;100.00;100712.19;4931266;29;19923;-86
2023/04/15 07:03:11;;;;;;;;;;;;;;;7.69;100.00;100716.88;4925127;29;20405;-82
2023/04/15 07:05:38;;;;;;;;;;;;;;;7.97;100.00;100726.19;4920017;29;19926;-82
2023/04/15 07:08:05;;;;;;;;;;;;;;;8.11;100.00;100728.59;4927054;29;19919;-86
2023/04/15 07:10:33;;;;;;;;;;;;;;;8.35;100.00;100734.66;4919077;29;19919;-85
2023/04/15 07:13:00;;;;;;;;;;;;;;;8.63;100.00;100743.84;4922971;29;19927;-86
2023/04/15 07:15:27;;;;;;;;;;;;;;;8.87;100.00;100750.72;4910478;29;19941;-85
2023/04/15 07:17:55;;;;;;;;;;;;;;;9.03;100.00;100754.75;4911946;29;19923;-86
2023/04/15 07:20:22;;;;;;;;;;;;;;;9.16;100.00;100757.19;4926371;29;20356;-86
2023/04/15 07:22:48;;;;;;;;;;;;;;;9.22;100.00;100763.78;4909655;29;20369;-86
2023/04/15 07:25:16;;;;;;;;;;;;;;;9.34;100.00;100761.91;4902017;29;19929;-86
2023/04/15 07:27:43;;;;;;;;;;;;;;;9.47;100.00;100773.13;4901905;29;19996;-86
2023/04/15 07:30:11;;;;;;;;;;;;;;;9.58;100.00;100782.75;4901299;29;19924;-86
2023/04/15 07:32:38;;;;;;;;;;;;;;;9.67;100.00;100781.97;4898300;29;20497;-86
2023/04/15 07:35:05;;;;;;;;;;;;;;;9.63;100.00;100785.00;4921637;29;19919;-86
2023/04/15 07:37:32;;;;;;;;;;;;;;;9.46;100.00;100783.81;4871368;29;19919;-83
2023/04/15 07:39:59;;;;;;;;;;;;;;;9.30;100.00;100796.44;4906019;29;19938;-82
2023/04/15 07:42:26;;;;;;;;;;;;;;;9.22;100.00;100803.34;4906792;29;19920;-87
2023/04/15 07:44:53;;;;;;;;;;;;;;;9.16;100.00;100797.59;4913773;29;19966;-87
2023/04/15 07:47:20;;;;;;;;;;;;;;;9.16;100.00;100796.75;4913541;29;19923;-87
2023/04/15 07:49:48;;;;;;;;;;;;;;;9.16;100.00;100799.38;4902079;29;19923;-86
2023/04/15 07:52:15;;;;;;;;;;;;;;;9.19;100.00;100804.41;4902339;29;19927;-85
2023/04/15 07:54:42;;;;;;;;;;;;;;;9.25;100.00;100801.25;4920055;29;19926;-86
2023/04/15 07:57:09;;;;;;;;;;;;;;;9.30;100.00;100793.81;4900814;29;19923;-87
2023/04/15 07:59:36;;;;;;;;;;;;;;;9.34;100.00;100798.84;4920515;29;20331;-87
2023/04/15 08:02:03;;;;;;;;;;;;;;;9.29;100.00;100805.34;4916866;29;19930;-86
2023/04/15 08:04:31;;;;;;;;;;;;;;;9.24;100.00;100807.50;4913367;29;19922;-87
2023/04/15 08:06:58;;;;;;;;;;;;;;;9.16;100.00;100823.97;4918836;29;19930;-88
2023/04/15 08:09:26;;;;;;;;;;;;;;;9.14;100.00;100819.78;4922023;29;19933;-86
2023/04/15 08:11:52;;;;;;;;;;;;;;;9.14;100.00;100819.78;4925698;29;19925;-87
2023/04/15 08:14:19;;;;;;;;;;;;;;;9.16;100.00;100817.84;4898905;29;19922;-87
2023/04/15 08:16:47;;;;;;;;;;;;;;;9.11;100.00;100823.50;4918574;29;19926;-87
2023/04/15 08:19:13;;;;;;;;;;;;;;;9.14;100.00;100825.88;4919694;29;19925;-87
2023/04/15 08:21:40;;;;;;;;;;;;;;;9.14;100.00;100825.88;4910280;29;20376;-87
2023/04/15 08:24:07;;;;;;;;;;;;;;;9.20;100.00;100826.34;4908453;29;19929;-87
2023/04/15 08:26:35;;;;;;;;;;;;;;;9.26;100.00;100821.44;4924234;29;19929;-87
2023/04/15 08:29:01;;;;;;;;;;;;;;;9.23;100.00;100819.03;4916160;29;19925;-87
2023/04/15 08:31:28;;;;;;;;;;;;;;;9.20;100.00;100819.28;4919304;29;19919;-86
2023/04/15 08:33:56;;;;;;;;;;;;;;;9.23;100.00;100812.91;4901375;29;19930;-87
2023/04/15 08:36:23;;;;;;;;;;;;;;;9.24;100.00;100804.03;4926254;29;19925;-82
2023/04/15 08:38:50;;;;;;;;;;;;;;;9.28;100.00;100805.47;4926534;29;19923;-82
2023/04/15 08:41:24;;;;;;;;;;;;;;;9.35;100.00;100801.34;4896810;29;19923;-82
2023/04/15 08:44:01;;;;;;;;;;;;;;;9.45;100.00;100805.84;4916162;29;19934;-82
2023/04/15 08:46:28;;;;;;;;;;;;;;;9.53;100.00;100809.53;4940985;28;19930;-87
2023/04/15 08:48:56;;;;;;;;;;;;;;;9.58;100.00;100803.88;4933929;29;20386;-87
2023/04/15 08:51:24;;;;;;;;;;;;;;;9.59;100.00;100810.00;4927085;29;19925;-88
2023/04/15 08:53:51;;;;;;;;;;;;;;;9.67;100.00;100812.81;4927770;29;19923;-87
2023/04/15 08:56:19;;;;;;;;;;;;;;;9.78;100.00;100818.03;4915326;29;20379;-87
2023/04/15 08:58:46;;;;;;;;;;;;;;;9.82;100.00;100820.41;4930183;29;19922;-87
2023/04/15 09:01:13;;;;;;;;;;;;;;;9.92;100.00;100821.31;4931422;29;19929;-86
2023/04/15 09:03:41;;;;;;;;;;;;;;;10.01;100.00;100827.59;4914979;29;19929;-86
2023/04/15 09:06:08;;;;;;;;;;;;;;;10.12;100.00;100819.59;4921164;29;19925;-86
2023/04/15 09:08:34;;;;;;;;;;;;;;;10.16;100.00;100830.75;4913770;29;20478;-87
2023/04/15 09:11:02;;;;;;;;;;;;;;;10.25;100.00;100829.09;4925723;29;19923;-88
2023/04/15 09:13:29;;;;;;;;;;;;;;;10.35;100.00;100827.31;4926192;29;19923;-88
2023/04/15 09:15:57;;;;;;;;;;;;;;;10.46;100.00;100823.81;4921918;29;19919;-88
2023/04/15 09:18:28;;;;;;;;;;;;;;;10.50;100.00;100838.41;4933251;28;20370;-88
2023/04/15 09:20:55;;;;;;;;;;;;;;;10.48;100.00;100828.94;4923078;29;20290;-88
2023/04/15 09:23:22;;;;;;;;;;;;;;;10.53;100.00;100834.66;4909385;29;19938;-88
2023/04/15 09:25:49;;;;;;;;;;;;;;;10.60;100.00;100833.16;4915106;29;19925;-88
2023/04/15 09:28:22;;;;;;;;;;;;;;;10.56;100.00;100828.28;4926027;29;19918;-89
2023/04/15 09:30:50;;;;;;;;;;;;;;;10.60;100.00;100832.31;4944419;29;19929;-88
2023/04/15 09:33:17;;;;;;;;;;;;;;;10.60;100.00;100834.97;4930870;29;19930;-88
2023/04/15 09:35:55;;;;;;;;;;;;;;;10.61;100.00;100833.97;4934957;28;19925;-88
2023/04/15 09:38:22;;;;;;;;;;;;;;;10.61;100.00;100832.19;4922829;29;19919;-87
2023/04/15 09:40:49;;;;;;;;;;;;;;;10.74;100.00;100837.22;4918923;29;20531;-87
2023/04/15 09:43:16;;;;;;;;;;;;;;;10.78;100.00;100840.44;4912775;29;19919;-88
2023/04/15 09:45:47;;;;;;;;;;;;;;;10.74;100.00;100844.31;4914670;29;20291;-88
2023/04/15 09:48:15;;;;;;;;;;;;;;;10.69;100.00;100841.25;4922569;29;20242;-88
2023/04/15 09:50:42;;;;;;;;;;;;;;;10.61;100.00;100842.75;4947120;29;19925;-87
2023/04/15 09:53:11;;;;;;;;;;;;;;;10.62;100.00;100846.25;4930997;29;19937;-88
2023/04/15 09:55:38;;;;;;;;;;;;;;;10.67;100.00;100844.03;4853850;29;19927;-89
2023/04/15 09:58:09;;;;;;;;;;;;;;;10.71;100.00;100841.94;4900672;29;20388;-82
2023/04/15 10:00:36;;;;;;;;;;;;;;;10.78;100.00;100833.31;4923962;29;19923;-81
2023/04/15 10:03:04;;;;;;;;;;;;;;;10.89;100.00;100842.94;4920320;29;19939;-88
2023/04/15 10:05:31;;;;;;;;;;;;;;;10.97;100.00;100836.16;4905514;29;19954;-89
2023/04/15 10:07:58;;;;;;;;;;;;;;;10.97;100.00;100838.78;4909784;29;19923;-89
2023/04/15 10:10:26;;;;;;;;;;;;;;;10.98;100.00;100837.81;4918654;29;19923;-89
2023/04/15 10:12:53;;;;;;;;;;;;;;;10.91;100.00;100843.66;4903520;29;19930;-88
2023/04/15 10:15:21;;;;;;;;;;;;;;;11.00;100.00;100830.59;4914043;29;19929;-88
2023/04/15 10:17:49;;;;;;;;;;;;;;;11.07;100.00;100837.00;4925799;29;19923;-86
2023/04/15 10:20:18;;;;;;;;;;;;;;;11.04;100.00;100840.75;4909732;29;20056;-88
2023/04/15 10:22:45;;;;;;;;;;;;;;;11.11;100.00;100840.19;4907198;28;19923;-88
2023/04/15 10:25:14;;;;;;;;;;;;;;;11.16;100.00;100841.44;4918524;29;19923;-88
2023/04/15 10:27:41;;;;;;;;;;;;;;;11.22;100.00;100834.78;4936282;29;19925;-88
2023/04/15 10:30:08;;;;;;;;;;;;;;;11.21;100.00;100832.28;4907313;29;20662;-88
2023/04/15 10:32:36;;;;;;;;;;;;;;;11.26;100.00;100833.50;4913281;29;19920;-88
2023/04/15 10:35:04;;;;;;;;;;;;;;;11.36;100.00;100836.16;4919919;29;20442;-88
2023/04/15 10:37:35;;;;;;;;;;;;;;;11.36;100.00;100837.97;4887656;29;19922;-88
2023/04/15 10:40:30;;;;;;;;;;;;;;;11.39;100.00;100830.59;4915642;29;19935;-88
2023/04/15 10:42:58;;;;;;;;;;;;;;;11.40;100.00;100834.09;4882916;29;19929;-88
2023/04/15 10:45:26;;;;;;;;;;;;;;;11.41;100.00;100833.94;4932818;29;19929;-87
2023/04/15 10:47:54;;;;;;;;;;;;;;;11.45;100.00;100836.31;4929888;29;20428;-81
2023/04/15 10:50:21;;;;;;;;;;;;;;;11.47;100.00;100840.47;4902161;29;19919;-81
2023/04/15 10:52:50;;;;;;;;;;;;;;;11.48;100.00;100834.19;4919828;29;19923;-88
2023/04/15 10:55:24;;;;;;;;;;;;;;;11.46;100.00;100838.81;4939033;29;19937;-88
2023/04/15 10:57:52;;;;;;;;;;;;;;;11.52;100.00;100832.13;4915372;29;19925;-88
2023/04/15 11:00:23;;;;;;;;;;;;;;;11.56;100.00;100846.75;4923434;29;20570;-88
2023/04/15 11:02:57;;;;;;;;;;;;;;;11.52;100.00;100840.91;4920109;29;19927;-88
2023/04/15 11:05:43;;;;;;;;;;;;;;;11.55;100.00;100845.06;4910819;29;19926;-88
2023/04/15 11:08:10;;;;;;;;;;;;;;;11.63;100.00;100842.56;4921388;29;19919;-88
2023/04/15 11:10:37;;;;;;;;;;;;;;;11.68;100.00;100841.28;4924191;29;19925;-87
2023/04/15 11:13:05;;;;;;;;;;;;;;;11.64;100.00;100840.75;4919639;29;19919;-87
2023/04/15 11:15:41;;;;;;;;;;;;;;;11.76;100.00;100838.78;4951842;28;20372;-88
2023/04/15 11:18:17;;;;;;;;;;;;;;;11.81;100.00;100841.00;4915759;29;20382;-88
2023/04/15 11:20:49;;;;;;;;;;;;;;;11.76;100.00;100836.13;4926229;28;19918;-87
2023/04/15 11:23:17;;;;;;;;;;;;;;;11.81;100.00;100841.00;4914558;29;19919;-88
2023/04/15 11:25:45;;;;;;;;;;;;;;;11.93;100.00;100839.03;4929636;29;19922;-89
2023/04/15 11:28:12;;;;;;;;;;;;;;;11.82;100.00;100838.19;4918833;29;19925;-88
2023/04/15 11:30:39;;;;;;;;;;;;;;;11.77;100.00;100845.72;4926202;29;19925;-88
2023/04/15 11:33:07;;;;;;;;;;;;;;;11.74;100.00;100846.84;4933921;29;20410;-89
2023/04/15 11:35:34;;;;;;;;;;;;;;;11.72;100.00;100840.84;4927138;29;20284;-89
2023/04/15 11:38:02;;;;;;;;;;;;;;;11.78;100.00;100850.88;4946831;28;19929;-89
2023/04/15 11:40:30;;;;;;;;;;;;;;;11.81;100.00;100841.00;4945860;28;19919;-88
2023/04/15 11:43:04;;;;;;;;;;;;;;;11.74;100.00;100835.41;4909699;29;20442;-90
2023/04/15 11:45:31;;;;;;;;;;;;;;;11.71;100.00;100841.00;4945631;28;19919;-90
2023/04/15 11:48:08;;;;;;;;;;;;;;;11.67;100.00;100853.72;4946822;28;19919;-90
2023/04/15 11:50:36;;;;;;;;;;;;;;;11.69;100.00;100851.72;4920654;29;20291;-88
2023/04/15 11:53:03;;;;;;;;;;;;;;;11.66;100.00;100852.03;4921130;29;19926;-82
2023/04/15 11:55:29;;;;;;;;;;;;;;;11.57;100.00;100848.41;4922225;29;20021;-82
2023/04/15 11:58:05;;;;;;;;;;;;;;;11.60;100.00;100850.78;4910463;29;19923;-81
2023/04/15 12:00:31;;;;;;;;;;;;;;;11.64;100.00;100849.50;4891384;29;20548;-82
2023/04/15 12:03:15;;;;;;;;;;;;;;;11.69;100.00;100845.63;4937338;29;19973;-90
2023/04/15 12:06:00;;;;;;;;;;;;;;;11.79;100.00;100841.13;4923657;29;19919;-90
2023/04/15 12:08:26;;;;;;;;;;;;;;;11.71;100.00;100841.00;4903291;29;20009;-89
2023/04/15 12:10:57;;;;;;;;;;;;;;;11.69;100.00;100846.44;4948448;28;20021;-82
2023/04/15 12:13:23;;;;;;;;;;;;;;;11.68;100.00;100834.19;4923796;29;19989;-81
2023/04/15 12:15:49;;;;;;;;;;;;;;;11.64;100.00;100832.81;4906351;29;22249;-91
2023/04/15 12:18:18;;;;;;;;;;;;;;;11.59;100.00;100833.25;4902488;29;19945;-88
2023/04/15 12:20:44;;;;;;;;;;;;;;;11.61;100.00;100838.38;4926604;29;19923;-88
2023/04/15 12:23:10;;;;;;;;;;;;;;;11.59;100.00;100835.03;4897831;29;19927;-89
2023/04/15 12:25:36;;;;;;;;;;;;;;;11.61;100.00;100844.50;4907965;28;19933;-89
2023/04/15 12:28:09;;;;;;;;;;;;;;;11.53;100.00;100841.75;4914406;29;19922;-90
2023/04/15 12:30:34;;;;;;;;;;;;;;;11.54;100.00;100838.97;4926178;29;19951;-90
2023/04/15 12:33:01;;;;;;;;;;;;;;;11.50;100.00;100839.34;4931256;29;19919;-90
2023/04/15 12:35:27;;;;;;;;;;;;;;;11.50;100.00;100842.84;4929481;29;19930;-92